Time;durP1;ratioP1;P1;durP2;ratioP2;P2;SDS_P1;SDS_P2;PMS_P1;PMS_P2;Temp;Humidity;BMP_temperature;BMP_pressure;BME280_temperature;BME280_humidity;BME280_pressure;Samples;Min_cycle;Max_cycle;Signal;HPM_P1;HPM_P2
2023/04/25 00:00:33;;;;;;;2.72;2.53;;;6.10;99.90;;;;;;5071854;28;20042;-79
2023/04/25 00:03:18;;;;;;;2.58;2.22;;;5.90;99.90;;;;;;5072365;28;20044;-80
2023/04/25 00:05:43;;;;;;;4.78;2.70;;;6.00;99.90;;;;;;5070812;28;20039;-80
2023/04/25 00:08:09;;;;;;;3.22;2.30;;;6.00;99.90;;;;;;5059034;28;20255;-80
2023/04/25 00:10:35;;;;;;;1.92;1.80;;;6.10;99.90;;;;;;5077144;28;20547;-80
2023/04/25 00:13:02;;;;;;;2.67;2.00;;;6.10;99.90;;;;;;5061702;28;20549;-80
2023/04/25 00:15:30;;;;;;;4.32;2.33;;;6.10;99.90;;;;;;5075366;28;20522;-80
2023/04/25 00:17:56;;;;;;;4.88;2.30;;;6.10;99.90;;;;;;5074970;28;20040;-80
2023/04/25 00:20:23;;;;;;;4.07;2.65;;;6.10;99.90;;;;;;5055290;28;20044;-80
2023/04/25 00:22:49;;;;;;;4.68;2.30;;;6.00;99.90;;;;;;5076420;28;20123;-80
2023/04/25 00:25:15;;;;;;;3.97;2.05;;;5.90;99.90;;;;;;5074674;28;20028;-80
2023/04/25 00:27:41;;;;;;;3.10;2.40;;;5.90;99.90;;;;;;5075725;28;20035;-80
2023/04/25 00:30:08;;;;;;;2.22;1.90;;;5.70;99.90;;;;;;5073740;28;20059;-79
2023/04/25 00:32:33;;;;;;;2.22;2.05;;;5.80;99.90;;;;;;5072162;28;20032;-79
2023/04/25 00:35:05;;;;;;;2.53;2.25;;;5.80;99.90;;;;;;5076641;28;20028;-81
2023/04/25 00:37:32;;;;;;;3.28;1.90;;;5.80;99.90;;;;;;5078919;28;20056;-80
2023/04/25 00:39:58;;;;;;;2.88;2.10;;;5.90;99.90;;;;;;5055188;28;20028;-80
2023/04/25 00:42:25;;;;;;;2.40;2.20;;;5.80;99.90;;;;;;5057357;28;20036;-79
2023/04/25 00:44:52;;;;;;;2.97;2.17;;;5.80;99.90;;;;;;5055113;28;20051;-80
2023/04/25 00:47:18;;;;;;;2.67;2.30;;;5.80;99.90;;;;;;5069964;28;20044;-79
2023/04/25 00:49:44;;;;;;;4.03;2.42;;;5.90;99.90;;;;;;5071682;28;20013;-79
2023/04/25 00:52:10;;;;;;;3.30;1.88;;;5.90;99.90;;;;;;5052664;28;20052;-80
2023/04/25 00:54:37;;;;;;;3.03;2.20;;;5.90;99.90;;;;;;5076579;28;20047;-80
2023/04/25 00:57:02;;;;;;;3.75;2.70;;;5.80;99.90;;;;;;5072485;28;20082;-80
2023/04/25 00:59:30;;;;;;;4.03;1.90;;;5.80;99.90;;;;;;5076074;28;20033;-80
2023/04/25 01:01:56;;;;;;;2.83;1.90;;;5.80;99.90;;;;;;5070983;28;20498;-79
2023/04/25 01:04:30;;;;;;;2.80;2.00;;;5.70;99.90;;;;;;5074138;28;20033;-79
2023/04/25 01:06:59;;;;;;;2.42;2.22;;;5.70;99.90;;;;;;5078663;28;20024;-80
2023/04/25 01:09:25;;;;;;;2.88;2.30;;;5.70;99.90;;;;;;5074649;28;20020;-80
2023/04/25 01:11:51;;;;;;;2.42;2.20;;;5.70;99.90;;;;;;5057059;28;21088;-80
2023/04/25 01:14:17;;;;;;;2.45;2.25;;;5.60;99.90;;;;;;5079911;28;20028;-80
2023/04/25 01:16:42;;;;;;;2.53;2.15;;;5.60;99.90;;;;;;5077429;28;20040;-80
2023/04/25 01:19:13;;;;;;;2.75;2.15;;;5.60;99.90;;;;;;5077732;28;20029;-79
2023/04/25 01:21:39;;;;;;;3.38;2.50;;;5.50;99.90;;;;;;5079986;28;20054;-79
2023/04/25 01:24:06;;;;;;;2.58;2.00;;;5.60;99.90;;;;;;5078790;28;20039;-80
2023/04/25 01:26:33;;;;;;;2.08;1.88;;;5.60;99.90;;;;;;5053565;28;20032;-80
2023/04/25 01:28:59;;;;;;;3.45;2.13;;;5.60;99.90;;;;;;5079389;28;20032;-80
2023/04/25 01:31:26;;;;;;;2.58;2.35;;;5.60;99.90;;;;;;5079658;28;20131;-80
2023/04/25 01:33:52;;;;;;;3.15;2.22;;;5.60;99.90;;;;;;5078251;28;20036;-81
2023/04/25 01:36:18;;;;;;;2.42;2.22;;;5.50;99.90;;;;;;5079774;28;20063;-80
2023/04/25 01:38:44;;;;;;;2.40;2.20;;;5.40;99.90;;;;;;5079147;28;20024;-80
2023/04/25 01:41:09;;;;;;;2.00;1.90;;;5.40;99.90;;;;;;5078389;28;20033;-80
2023/04/25 01:43:35;;;;;;;3.80;2.65;;;5.40;99.90;;;;;;5079694;28;20088;-80
2023/04/25 01:46:01;;;;;;;3.55;2.83;;;5.50;99.90;;;;;;5082298;28;20036;-81
2023/04/25 01:48:27;;;;;;;4.80;2.33;;;5.50;99.90;;;;;;5060198;28;20443;-79
2023/04/25 01:50:52;;;;;;;3.13;2.47;;;5.50;99.90;;;;;;5081746;28;20373;-81
2023/04/25 01:53:18;;;;;;;6.15;2.92;;;5.30;99.90;;;;;;5075784;28;20036;-79
2023/04/25 01:55:44;;;;;;;2.60;1.98;;;5.30;99.90;;;;;;5065510;28;20032;-80
2023/04/25 01:58:12;;;;;;;5.25;2.90;;;5.30;99.90;;;;;;5079487;28;20044;-80
2023/04/25 02:00:38;;;;;;;2.65;2.17;;;5.30;99.90;;;;;;5076218;28;20171;-79
2023/04/25 02:03:04;;;;;;;2.40;2.20;;;5.30;99.90;;;;;;5078740;28;20039;-80
2023/04/25 02:05:40;;;;;;;2.30;2.10;;;5.20;99.90;;;;;;5079210;28;20052;-80
2023/04/25 02:08:07;;;;;;;2.22;1.95;;;5.20;99.90;;;;;;5078379;28;20036;-80
2023/04/25 02:10:34;;;;;;;2.20;2.00;;;5.30;99.90;;;;;;5060983;28;20102;-80
2023/04/25 02:13:00;;;;;;;2.47;2.10;;;5.30;99.90;;;;;;5079514;28;20033;-81
2023/04/25 02:15:25;;;;;;;2.45;2.20;;;5.30;99.90;;;;;;5079198;28;20078;-80
2023/04/25 02:17:54;;;;;;;4.00;2.72;;;5.30;99.90;;;;;;5059170;28;20032;-80
2023/04/25 02:20:24;;;;;;;3.10;2.33;;;5.30;99.90;;;;;;5083641;28;20036;-81
2023/04/25 02:22:50;;;;;;;3.17;2.85;;;5.30;99.90;;;;;;5081513;28;20040;-79
2023/04/25 02:25:17;;;;;;;2.70;2.50;;;5.30;99.90;;;;;;5064947;28;20047;-81
2023/04/25 02:27:43;;;;;;;3.33;2.78;;;5.40;99.90;;;;;;5076186;28;20037;-80
2023/04/25 02:30:09;;;;;;;5.22;2.97;;;5.40;99.90;;;;;;5079386;28;20052;-80
2023/04/25 02:32:35;;;;;;;2.85;2.63;;;5.50;99.90;;;;;;5074770;28;20040;-80
2023/04/25 02:35:04;;;;;;;3.45;2.67;;;5.60;99.90;;;;;;5080474;28;20033;-80
2023/04/25 02:37:30;;;;;;;4.07;2.78;;;5.60;99.90;;;;;;5077937;28;20055;-80
2023/04/25 02:39:56;;;;;;;3.47;2.78;;;5.70;99.90;;;;;;5061795;28;20043;-80
2023/04/25 02:42:22;;;;;;;3.88;3.00;;;5.70;99.90;;;;;;5077409;28;20028;-80
2023/04/25 02:44:48;;;;;;;5.13;3.00;;;5.80;99.90;;;;;;5082668;28;20534;-80
2023/04/25 02:47:13;;;;;;;4.00;3.47;;;5.80;99.90;;;;;;5076628;28;20028;-79
2023/04/25 02:49:39;;;;;;;4.25;3.00;;;5.90;99.90;;;;;;5073454;28;20028;-82
2023/04/25 02:52:05;;;;;;;5.68;3.38;;;5.90;99.90;;;;;;5071200;28;20028;-80
2023/04/25 02:54:31;;;;;;;3.17;2.85;;;5.90;99.90;;;;;;5075028;28;20899;-80
2023/04/25 02:56:56;;;;;;;3.30;2.90;;;6.00;99.90;;;;;;5077724;28;20032;-80
2023/04/25 02:59:22;;;;;;;3.65;2.95;;;6.10;99.90;;;;;;5079223;28;20066;-80
2023/04/25 03:01:47;;;;;;;3.58;3.25;;;6.10;99.90;;;;;;5075641;28;20052;-80
2023/04/25 03:04:13;;;;;;;3.72;3.40;;;6.10;99.90;;;;;;5059919;28;20104;-80
2023/04/25 03:06:39;;;;;;;3.72;3.33;;;6.10;99.90;;;;;;5077031;28;20039;-79
2023/04/25 03:09:05;;;;;;;4.40;3.00;;;6.10;99.90;;;;;;5060439;28;20108;-80
2023/04/25 03:11:30;;;;;;;3.10;2.90;;;6.20;99.90;;;;;;5076959;28;20032;-79
2023/04/25 03:13:56;;;;;;;3.90;2.92;;;6.20;99.90;;;;;;5082234;28;20036;-80
2023/04/25 03:16:22;;;;;;;3.45;3.05;;;6.20;99.90;;;;;;5080590;28;20035;-79
2023/04/25 03:18:49;;;;;;;5.75;3.55;;;6.20;99.90;;;;;;5081973;28;20046;-80
2023/04/25 03:21:15;;;;;;;4.35;3.22;;;6.20;99.90;;;;;;5079190;28;20052;-80
2023/04/25 03:23:40;;;;;;;4.30;3.05;;;6.20;99.90;;;;;;5074395;28;20037;-79
2023/04/25 03:26:06;;;;;;;6.53;3.60;;;6.20;99.90;;;;;;5071867;28;20040;-80
2023/04/25 03:28:32;;;;;;;4.82;3.17;;;6.20;99.90;;;;;;5066620;28;20036;-79
2023/04/25 03:30:57;;;;;;;3.90;3.08;;;6.20;99.90;;;;;;5059330;28;20579;-79
2023/04/25 03:33:23;;;;;;;4.78;3.33;;;6.20;99.90;;;;;;5081338;28;20039;-78
2023/04/25 03:35:49;;;;;;;4.05;2.80;;;6.30;99.90;;;;;;5038438;28;1113889;-80
2023/04/25 03:38:15;;;;;;;4.47;2.83;;;6.30;99.90;;;;;;5081878;28;20036;-80
2023/04/25 03:40:41;;;;;;;4.65;3.25;;;6.30;99.90;;;;;;5079359;28;20385;-79
2023/04/25 03:43:07;;;;;;;4.47;3.03;;;6.30;99.90;;;;;;5064709;28;20029;-79
2023/04/25 03:45:33;;;;;;;3.88;3.30;;;6.30;99.90;;;;;;5078098;28;20868;-81
2023/04/25 03:47:58;;;;;;;3.10;2.80;;;6.40;99.90;;;;;;5078273;28;20097;-79
2023/04/25 03:50:24;;;;;;;4.40;2.90;;;6.40;99.90;;;;;;5079283;28;20031;-80
2023/04/25 03:52:49;;;;;;;5.35;3.50;;;6.40;99.90;;;;;;5080417;28;20092;-80
2023/04/25 03:55:15;;;;;;;3.70;2.50;;;6.40;99.90;;;;;;5081348;28;20020;-80
2023/04/25 03:57:41;;;;;;;3.33;2.83;;;6.30;99.90;;;;;;5064406;28;20056;-79
2023/04/25 04:00:07;;;;;;;3.53;2.95;;;6.30;99.90;;;;;;5066603;28;20048;-79
2023/04/25 04:02:34;;;;;;;3.65;2.90;;;6.30;99.90;;;;;;5075537;28;20072;-80
2023/04/25 04:05:00;;;;;;;5.97;2.75;;;6.30;99.90;;;;;;5082358;28;20049;-80
2023/04/25 04:07:29;;;;;;;2.70;2.50;;;6.30;99.90;;;;;;5076456;28;20029;-81
2023/04/25 04:09:54;;;;;;;2.92;2.53;;;6.30;99.90;;;;;;5072968;28;20040;-80
2023/04/25 04:12:20;;;;;;;5.82;2.70;;;6.30;99.90;;;;;;5076741;28;20055;-79
2023/04/25 04:14:46;;;;;;;2.70;2.50;;;6.40;99.90;;;;;;5083330;28;20041;-81
2023/04/25 04:17:11;;;;;;;4.22;2.50;;;6.40;99.90;;;;;;5081998;28;20104;-79
2023/04/25 04:19:37;;;;;;;3.65;2.90;;;6.40;99.90;;;;;;5084398;28;20043;-79
2023/04/25 04:22:02;;;;;;;3.10;2.80;;;6.40;99.90;;;;;;5085417;28;20033;-80
2023/04/25 04:24:31;;;;;;;3.60;2.35;;;6.50;99.90;;;;;;5083762;28;20059;-80
2023/04/25 04:26:57;;;;;;;4.32;2.97;;;6.50;99.90;;;;;;5082484;28;20050;-79
2023/04/25 04:29:22;;;;;;;3.72;2.55;;;6.50;99.90;;;;;;5068626;28;20040;-79
2023/04/25 04:31:52;;;;;;;3.20;2.47;;;6.50;99.90;;;;;;5081792;28;20526;-80
2023/04/25 04:34:18;;;;;;;2.88;2.58;;;6.50;99.90;;;;;;5083980;28;20036;-80
2023/04/25 04:36:46;;;;;;;4.80;2.88;;;6.50;99.90;;;;;;5065559;28;20125;-80
2023/04/25 04:39:12;;;;;;;3.88;2.83;;;6.50;99.90;;;;;;5081097;28;20039;-80
2023/04/25 04:41:38;;;;;;;3.05;2.42;;;6.50;99.90;;;;;;5079807;28;20032;-80
2023/04/25 04:44:04;;;;;;;3.38;2.60;;;6.50;99.90;;;;;;5082411;28;20135;-81
2023/04/25 04:46:37;;;;;;;4.57;3.10;;;6.50;99.90;;;;;;5085059;28;20037;-79
2023/04/25 04:49:04;;;;;;;4.80;2.90;;;6.50;99.90;;;;;;5084475;28;20044;-80
2023/04/25 04:51:31;;;;;;;3.78;2.72;;;6.50;99.90;;;;;;5062938;28;20032;-79
2023/04/25 04:54:01;;;;;;;3.70;3.08;;;6.60;99.90;;;;;;5085217;28;20075;-81
2023/04/25 04:56:29;;;;;;;3.92;2.67;;;6.60;99.90;;;;;;5080197;28;20040;-80
2023/04/25 04:58:55;;;;;;;4.32;3.08;;;6.60;99.90;;;;;;5083265;28;20059;-79
2023/04/25 05:01:21;;;;;;;3.70;3.03;;;6.60;99.90;;;;;;5073526;28;20044;-80
2023/04/25 05:03:47;;;;;;;4.13;3.08;;;6.60;99.90;;;;;;5083600;28;20087;-79
2023/04/25 05:06:13;;;;;;;4.68;2.90;;;6.60;99.90;;;;;;5066274;28;20032;-79
2023/04/25 05:08:38;;;;;;;3.38;2.78;;;6.60;99.90;;;;;;5083409;28;20032;-77
2023/04/25 05:11:04;;;;;;;4.25;2.78;;;6.60;99.90;;;;;;5065754;28;20124;-79
2023/04/25 05:13:30;;;;;;;3.80;2.90;;;6.70;99.90;;;;;;5069846;28;20039;-78
2023/04/25 05:15:56;;;;;;;5.03;2.55;;;6.70;99.90;;;;;;5085486;28;20036;-78
2023/04/25 05:18:25;;;;;;;3.15;2.55;;;6.70;99.90;;;;;;5067066;28;20127;-79
2023/04/25 05:20:53;;;;;;;4.32;2.38;;;6.80;99.90;;;;;;5066929;28;20035;-79
2023/04/25 05:23:19;;;;;;;3.15;2.58;;;6.70;99.90;;;;;;5084809;28;20040;-79
2023/04/25 05:25:44;;;;;;;2.42;2.20;;;6.80;99.90;;;;;;5072700;28;20021;-79
2023/04/25 05:28:12;;;;;;;4.55;2.22;;;6.80;99.90;;;;;;5085488;28;20025;-80
2023/04/25 05:30:38;;;;;;;2.17;2.03;;;6.80;99.90;;;;;;5083492;28;20024;-79
2023/04/25 05:33:04;;;;;;;3.65;2.20;;;6.80;99.90;;;;;;5071120;28;20088;-79
2023/04/25 05:35:33;;;;;;;3.72;2.25;;;6.90;99.90;;;;;;5084761;28;20112;-78
2023/04/25 05:37:58;;;;;;;3.25;2.33;;;6.90;99.90;;;;;;5066819;28;20032;-80
2023/04/25 05:40:25;;;;;;;4.43;2.97;;;6.90;99.90;;;;;;5078159;28;20028;-79
2023/04/25 05:42:50;;;;;;;2.67;2.40;;;6.90;99.90;;;;;;5083296;28;20108;-79
2023/04/25 05:45:17;;;;;;;3.28;2.58;;;7.00;99.90;;;;;;5065283;28;20044;-80
2023/04/25 05:47:43;;;;;;;4.63;2.70;;;7.00;99.90;;;;;;5067548;28;20016;-80
2023/04/25 05:50:09;;;;;;;2.20;1.98;;;7.00;99.90;;;;;;5085781;28;20040;-79
2023/04/25 05:52:34;;;;;;;2.70;2.50;;;7.00;99.90;;;;;;5069347;28;20021;-79
2023/04/25 05:55:00;;;;;;;4.80;2.95;;;7.10;99.90;;;;;;5084780;28;20024;-79
2023/04/25 05:57:27;;;;;;;3.97;2.40;;;7.10;99.90;;;;;;5082371;28;20079;-79
2023/04/25 05:59:53;;;;;;;2.45;2.00;;;7.10;99.90;;;;;;5082379;28;20044;-78
2023/04/25 06:02:20;;;;;;;7.20;4.15;;;7.10;99.90;;;;;;5068894;28;20041;-79
2023/04/25 06:04:46;;;;;;;5.32;2.45;;;7.10;99.90;;;;;;5087477;28;20079;-79
2023/04/25 06:07:12;;;;;;;2.92;2.63;;;7.20;99.90;;;;;;5081118;28;20025;-78
2023/04/25 06:09:39;;;;;;;4.05;2.53;;;7.20;99.90;;;;;;5084511;28;20028;-79
2023/04/25 06:12:06;;;;;;;4.95;2.30;;;7.30;99.90;;;;;;5086848;28;20055;-79
2023/04/25 06:14:33;;;;;;;3.85;2.78;;;7.40;99.90;;;;;;5088812;28;20035;-79
2023/04/25 06:16:58;;;;;;;3.80;2.28;;;7.50;99.90;;;;;;5086033;28;20070;-81
2023/04/25 06:19:24;;;;;;;2.35;1.85;;;7.70;99.90;;;;;;5086590;28;20388;-79
2023/04/25 06:21:50;;;;;;;4.85;2.42;;;7.90;99.90;;;;;;5087949;28;20483;-79
2023/04/25 06:24:16;;;;;;;2.28;2.08;;;8.10;99.90;;;;;;5067708;28;20033;-79
2023/04/25 06:26:41;;;;;;;3.35;2.40;;;8.10;99.90;;;;;;5067450;28;20051;-80
2023/04/25 06:29:07;;;;;;;3.03;1.75;;;8.10;99.90;;;;;;5082370;28;20013;-80
2023/04/25 06:31:33;;;;;;;3.50;2.35;;;8.00;99.90;;;;;;5085187;28;20046;-79
2023/04/25 06:33:59;;;;;;;3.45;2.20;;;8.00;99.90;;;;;;5084828;28;20032;-77
2023/04/25 06:36:27;;;;;;;4.13;2.47;;;8.00;99.90;;;;;;5086158;28;20538;-79
2023/04/25 06:38:54;;;;;;;3.63;2.25;;;7.90;99.90;;;;;;5077053;28;20079;-79
2023/04/25 06:41:20;;;;;;;1.50;1.40;;;7.80;99.90;;;;;;5082467;28;20039;-79
2023/04/25 06:43:46;;;;;;;3.75;2.30;;;7.70;99.90;;;;;;5077586;28;20096;-80
2023/04/25 06:46:11;;;;;;;2.40;2.22;;;7.70;99.90;;;;;;5083347;28;20040;-79
2023/04/25 06:48:37;;;;;;;3.00;2.30;;;7.70;99.90;;;;;;5081588;28;20028;-78
2023/04/25 06:51:03;;;;;;;2.53;2.08;;;7.70;99.90;;;;;;5080766;28;20032;-80
2023/04/25 06:53:29;;;;;;;3.33;2.05;;;7.70;99.90;;;;;;5082566;28;20032;-79
2023/04/25 06:55:55;;;;;;;5.53;2.50;;;7.70;99.90;;;;;;5064116;28;20075;-79
2023/04/25 06:58:21;;;;;;;2.40;2.20;;;7.80;99.90;;;;;;5058781;28;20476;-79
2023/04/25 07:00:46;;;;;;;2.08;1.98;;;7.80;99.90;;;;;;5081967;28;20052;-79
2023/04/25 07:03:12;;;;;;;4.55;2.10;;;7.90;99.90;;;;;;5078744;28;20060;-80
2023/04/25 07:05:38;;;;;;;4.13;2.15;;;7.90;99.90;;;;;;5080485;28;20044;-78
2023/04/25 07:08:03;;;;;;;2.55;2.30;;;8.00;99.90;;;;;;5074934;28;20040;-79
2023/04/25 07:10:30;;;;;;;3.13;2.80;;;8.00;99.90;;;;;;5064720;28;20024;-79
2023/04/25 07:12:56;;;;;;;5.32;2.55;;;8.00;99.90;;;;;;5069493;28;20119;-79
2023/04/25 07:15:21;;;;;;;3.28;2.10;;;8.10;99.90;;;;;;5081440;28;20021;-78
2023/04/25 07:17:50;;;;;;;4.82;2.30;;;8.30;99.90;;;;;;5079360;28;20574;-79
2023/04/25 07:20:16;;;;;;;;;;;8.50;99.90;;;;;;5078023;28;20028;-79
2023/04/25 07:22:50;;;;;;;3.28;1.85;;;8.60;99.90;;;;;;5080129;28;20387;-81
2023/04/25 07:25:20;;;;;;;3.70;2.33;;;8.60;99.90;;;;;;5078371;28;20036;-79
2023/04/25 07:27:46;;;;;;;2.45;1.95;;;8.80;99.90;;;;;;5080194;22;21387;-33
2023/04/25 07:30:12;;;;;;;3.45;1.65;;;9.10;99.90;;;;;;5013175;28;20934;-32
2023/04/25 07:32:39;;;;;;;1.50;1.40;;;9.20;99.90;;;;;;5044213;28;20045;-32
2023/04/25 07:35:15;;;;;;;3.65;2.13;;;9.40;99.90;;;;;;5042790;28;20031;-32
2023/04/25 07:37:40;;;;;;;1.77;1.67;;;9.50;99.90;;;;;;5039742;28;20115;-33
2023/04/25 07:40:07;;;;;;;2.38;2.17;;;9.50;99.90;;;;;;5038754;28;20223;-33
2023/04/25 07:42:33;;;;;;;2.20;2.00;;;9.70;99.90;;;;;;5041092;28;20021;-32
2023/04/25 07:45:00;;;;;;;2.92;1.80;;;9.70;99.90;;;;;;5042814;28;20025;-33
2023/04/25 07:47:25;;;;;;;2.55;2.13;;;9.90;99.90;;;;;;5044421;28;20055;-33
2023/04/25 07:49:51;;;;;;;2.05;1.88;;;9.90;99.90;;;;;;5044384;28;20033;-33
2023/04/25 07:52:16;;;;;;;2.00;1.58;;;10.20;99.90;;;;;;5046496;28;20048;-33
2023/04/25 07:54:42;;;;;;;2.72;1.60;;;10.20;99.90;;;;;;5046181;28;20036;-33
2023/04/25 07:57:08;;;;;;;2.88;1.80;;;10.30;99.90;;;;;;5043359;28;20087;-33
2023/04/25 07:59:34;;;;;;;2.75;1.83;;;10.20;99.90;;;;;;5040743;28;20437;-32
2023/04/25 08:02:00;;;;;;;3.25;2.15;;;10.30;99.90;;;;;;5041162;28;20040;-32
2023/04/25 08:04:26;;;;;;;2.08;1.60;;;10.60;99.90;;;;;;5047425;28;20116;-32
2023/04/25 08:06:53;;;;;;;1.60;1.50;;;10.70;99.90;;;;;;5047037;28;20105;-33
2023/04/25 08:09:19;;;;;;;1.40;1.30;;;11.00;99.90;;;;;;5045870;28;20115;-34
2023/04/25 08:11:45;;;;;;;2.35;1.80;;;10.80;99.90;;;;;;5041196;28;20435;-33
2023/04/25 08:14:12;;;;;;;2.20;1.70;;;10.70;99.90;;;;;;5046486;28;20035;-32
2023/04/25 08:16:37;;;;;;;2.30;1.40;;;10.60;99.90;;;;;;5042835;28;20059;-34
2023/04/25 08:19:03;;;;;;;3.70;2.13;;;10.50;99.90;;;;;;5042027;28;20045;-32
2023/04/25 08:21:29;;;;;;;2.20;2.00;;;10.40;99.90;;;;;;5028814;28;20470;-32
2023/04/25 08:23:55;;;;;;;2.63;1.58;;;10.40;99.90;;;;;;5042124;28;20057;-32
2023/04/25 08:26:20;;;;;;;1.38;1.27;;;10.30;99.90;;;;;;5043339;28;20021;-34
2023/04/25 08:28:46;;;;;;;2.15;1.80;;;10.60;99.90;;;;;;5015584;28;20058;-32
2023/04/25 08:31:12;;;;;;;1.90;1.80;;;10.80;99.90;;;;;;5027668;28;20037;-33
2023/04/25 08:33:37;;;;;;;3.53;1.90;;;10.80;99.90;;;;;;5018327;28;20116;-33
2023/04/25 08:36:03;;;;;;;2.70;1.80;;;10.80;99.90;;;;;;5023777;28;20029;-34
2023/04/25 08:38:29;;;;;;;4.68;1.38;;;10.90;99.90;;;;;;5019472;28;20053;-32
2023/04/25 08:40:57;;;;;;;3.15;2.03;;;10.80;99.90;;;;;;5017980;28;20033;-34
2023/04/25 08:43:23;;;;;;;1.77;1.67;;;10.90;99.90;;;;;;5025671;28;20025;-33
2023/04/25 08:45:49;;;;;;;3.03;1.55;;;10.80;99.90;;;;;;5020292;28;20557;-34
2023/04/25 08:48:16;;;;;;;4.90;1.63;;;10.70;99.90;;;;;;5019645;28;20101;-34
2023/04/25 08:50:54;;;;;;;1.80;1.70;;;10.60;99.90;;;;;;5023972;28;20026;-33
2023/04/25 08:53:26;;;;;;;3.65;1.80;;;10.70;99.90;;;;;;5022346;28;20072;-33
2023/04/25 08:55:56;;;;;;;4.07;1.92;;;10.60;99.90;;;;;;5020829;28;20116;-33
2023/04/25 08:58:22;;;;;;;2.97;1.63;;;10.50;99.90;;;;;;5021307;28;20033;-32
2023/04/25 09:00:49;;;;;;;3.53;1.92;;;10.50;99.90;;;;;;5023216;28;20123;-33
2023/04/25 09:03:16;;;;;;;3.90;1.45;;;10.50;99.90;;;;;;5023128;28;20056;-33
2023/04/25 09:05:42;;;;;;;1.90;1.42;;;10.40;99.90;;;;;;5024494;28;20029;-32
2023/04/25 09:08:07;;;;;;;2.95;1.58;;;10.40;99.90;;;;;;5025054;28;20048;-34
2023/04/25 09:10:34;;;;;;;3.22;1.90;;;10.50;99.90;;;;;;5018805;28;20030;-33
2023/04/25 09:13:11;;;;;;;2.00;1.90;;;10.50;99.90;;;;;;5025568;28;20021;-33
2023/04/25 09:15:51;;;;;;;2.97;2.00;;;10.70;99.90;;;;;;5020848;28;20038;-33
2023/04/25 09:18:30;;;;;;;1.98;1.63;;;10.60;99.90;;;;;;5021135;28;20041;-32
2023/04/25 09:21:07;;;;;;;2.17;1.95;;;10.50;99.90;;;;;;5021062;28;20025;-33
2023/04/25 09:23:43;;;;;;;1.92;1.83;;;10.50;99.90;;;;;;5019408;28;20022;-32
2023/04/25 09:26:09;;;;;;;2.35;1.40;;;10.50;99.90;;;;;;5021333;28;20033;-32
2023/04/25 09:28:35;;;;;;;3.00;1.77;;;10.50;99.90;;;;;;5028253;28;20042;-33
2023/04/25 09:31:01;;;;;;;2.65;1.70;;;10.50;99.90;;;;;;5022026;28;20037;-31
2023/04/25 09:33:32;;;;;;;3.25;1.90;;;10.50;99.90;;;;;;5025567;28;20048;-33
2023/04/25 09:36:15;;;;;;;4.53;1.92;;;10.50;99.90;;;;;;5023730;28;20391;-33
2023/04/25 09:38:43;;;;;;;1.55;1.45;;;10.60;99.90;;;;;;5025746;28;20026;-32
2023/04/25 09:41:10;;;;;;;2.30;1.63;;;10.70;99.90;;;;;;5017091;28;20041;-33
2023/04/25 09:43:36;;;;;;;2.05;1.70;;;10.70;99.90;;;;;;5026608;28;20057;-33
2023/04/25 09:46:03;;;;;;;2.40;1.90;;;10.60;99.90;;;;;;5020676;28;20482;-33
2023/04/25 09:48:28;;;;;;;2.63;1.80;;;10.50;99.90;;;;;;5023444;28;20034;-33
2023/04/25 09:51:03;;;;;;;1.55;1.45;;;10.30;99.90;;;;;;5024033;28;20036;-33
2023/04/25 09:53:30;;;;;;;1.98;1.83;;;9.90;99.90;;;;;;5025100;28;20025;-32
2023/04/25 09:55:56;;;;;;;1.50;1.40;;;9.40;99.90;;;;;;5018340;28;20435;-33
2023/04/25 09:58:24;;;;;;;1.17;1.13;;;9.00;99.90;;;;;;5027103;28;20025;-33
2023/04/25 10:00:51;;;;;;;1.17;1.08;;;8.90;99.90;;;;;;5020971;28;20033;-32
2023/04/25 10:03:17;;;;;;;1.38;1.27;;;8.80;99.90;;;;;;5009611;28;20505;-33
2023/04/25 10:05:44;;;;;;;3.30;1.42;;;8.70;99.90;;;;;;5025205;28;20089;-32
2023/04/25 10:08:11;;;;;;;1.20;1.10;;;8.80;99.90;;;;;;5024985;28;20025;-32
2023/04/25 10:10:39;;;;;;;1.15;1.08;;;8.80;99.90;;;;;;5027711;28;20037;-33
2023/04/25 10:13:06;;;;;;;1.55;1.02;;;9.00;99.90;;;;;;5028878;28;21062;-32
2023/04/25 10:15:35;;;;;;;1.38;1.30;;;9.20;99.90;;;;;;5024822;28;20045;-33
2023/04/25 10:18:01;;;;;;;1.10;1.00;;;9.30;99.90;;;;;;5026244;28;20021;-33
2023/04/25 10:20:27;;;;;;;1.27;1.17;;;9.40;99.90;;;;;;5017729;28;20033;-32
2023/04/25 10:22:56;;;;;;;1.40;1.00;;;9.50;99.90;;;;;;5024417;28;20079;-32
2023/04/25 10:25:23;;;;;;;1.30;1.00;;;9.40;99.90;;;;;;5016744;28;20021;-32
2023/04/25 10:27:52;;;;;;;1.60;1.50;;;9.40;99.90;;;;;;5028377;28;20033;-34
2023/04/25 10:30:18;;;;;;;0.90;0.90;;;9.50;99.90;;;;;;5041863;28;20041;-33
2023/04/25 10:32:45;;;;;;;1.05;1.05;;;9.60;99.90;;;;;;5042909;28;21452;-33
2023/04/25 10:35:19;;;;;;;2.30;1.10;;;9.70;99.90;;;;;;5042266;28;20040;-34
2023/04/25 10:38:03;;;;;;;1.00;1.00;;;9.80;99.90;;;;;;5049893;28;20024;-33
2023/04/25 10:40:28;;;;;;;2.80;1.20;;;9.90;99.90;;;;;;5040756;28;20036;-33
2023/04/25 10:42:57;;;;;;;1.55;1.45;;;10.00;99.90;;;;;;5044545;28;20031;-32
2023/04/25 10:45:22;;;;;;;;;;;10.10;99.90;;;;;;5041503;28;20021;-33
2023/04/25 10:47:48;;;;;;;1.60;1.33;;;10.10;99.90;;;;;;5042495;28;20275;-33
2023/04/25 10:50:16;;;;;;;1.50;1.40;;;10.20;99.90;;;;;;5037029;28;20037;-32
2023/04/25 10:52:41;;;;;;;1.58;1.48;;;10.20;99.90;;;;;;5048180;28;20710;-33
2023/04/25 10:55:07;;;;;;;1.77;1.30;;;10.30;99.90;;;;;;5042065;28;20033;-33
2023/04/25 10:57:45;;;;;;;1.55;1.20;;;10.40;99.90;;;;;;5045324;28;20030;-35
2023/04/25 11:00:15;;;;;;;1.60;1.50;;;10.40;99.90;;;;;;5043263;28;20037;-34
2023/04/25 11:02:46;;;;;;;2.85;1.50;;;10.60;99.90;;;;;;5047901;28;20124;-33
2023/04/25 11:05:34;;;;;;;1.55;1.38;;;10.70;99.90;;;;;;5046959;28;20028;-33
2023/04/25 11:08:00;;;;;;;1.98;1.88;;;10.30;99.90;;;;;;5047167;28;20023;-33
2023/04/25 11:10:29;;;;;;;2.17;1.98;;;10.30;99.90;;;;;;5040441;28;20028;-32
2023/04/25 11:12:55;;;;;;;2.05;1.88;;;10.30;99.90;;;;;;5045656;28;20043;-34
2023/04/25 11:15:21;;;;;;;1.85;1.65;;;10.50;99.90;;;;;;5043429;28;20749;-33
2023/04/25 11:17:46;;;;;;;3.60;2.83;;;10.70;99.90;;;;;;5049438;28;20044;-32
2023/04/25 11:20:13;;;;;;;1.73;1.48;;;10.70;99.90;;;;;;5031374;28;20540;-33
2023/04/25 11:22:42;;;;;;;2.60;1.50;;;10.50;99.90;;;;;;5048821;28;20474;-33
2023/04/25 11:25:10;;;;;;;1.35;1.25;;;9.90;99.90;;;;;;5043739;28;20112;-32
2023/04/25 11:28:01;;;;;;;1.08;1.00;;;9.20;99.90;;;;;;5045081;28;20060;-32
2023/04/25 11:30:28;;;;;;;1.30;1.20;;;8.50;99.90;;;;;;5018116;28;20108;-32
2023/04/25 11:32:54;;;;;;;1.48;1.35;;;8.00;99.90;;;;;;5025063;28;20038;-32
2023/04/25 11:35:22;;;;;;;1.50;1.40;;;8.00;99.90;;;;;;5022160;28;20113;-32
2023/04/25 11:37:49;;;;;;;0.85;0.85;;;7.90;99.90;;;;;;5025114;28;20108;-32
2023/04/25 11:40:15;;;;;;;1.75;1.40;;;7.70;99.90;;;;;;5006358;28;20029;-34
2023/04/25 11:42:45;;;;;;;1.40;1.30;;;7.70;99.90;;;;;;5023867;28;20032;-33
2023/04/25 11:45:12;;;;;;;1.65;1.35;;;7.80;99.90;;;;;;5019326;28;20034;-33
2023/04/25 11:47:38;;;;;;;1.88;1.40;;;7.80;99.90;;;;;;5025204;28;20470;-32
2023/04/25 11:50:05;;;;;;;2.05;1.38;;;7.90;99.90;;;;;;5021344;28;20079;-32
2023/04/25 11:52:44;;;;;;;2.85;1.60;;;7.80;99.90;;;;;;5024725;28;20048;-32
2023/04/25 11:55:13;;;;;;;1.75;1.50;;;7.80;99.90;;;;;;5017862;28;20381;-32
2023/04/25 11:57:40;;;;;;;1.30;1.20;;;7.50;99.90;;;;;;5026285;28;20088;-33
2023/04/25 12:00:18;;;;;;;2.05;1.90;;;7.40;99.90;;;;;;5020832;28;20042;-32
2023/04/25 12:02:50;;;;;;;3.30;2.00;;;7.40;99.90;;;;;;5025689;28;20046;-33
2023/04/25 12:05:16;;;;;;;1.20;1.20;;;7.60;99.90;;;;;;5024812;28;20060;-32
2023/04/25 12:07:42;;;;;;;2.13;1.80;;;7.60;99.90;;;;;;5025121;28;20565;-33
2023/04/25 12:10:09;;;;;;;1.65;1.55;;;7.70;99.90;;;;;;5020956;28;20121;-33
2023/04/25 12:12:35;;;;;;;1.52;1.45;;;7.60;99.90;;;;;;5025839;28;20029;-33
2023/04/25 12:15:24;;;;;;;2.25;1.75;;;7.60;99.90;;;;;;5024344;28;20446;-32
2023/04/25 12:17:50;;;;;;;1.60;1.38;;;7.60;99.90;;;;;;5025411;28;20068;-32
2023/04/25 12:20:19;;;;;;;1.85;1.45;;;7.40;99.90;;;;;;5021247;28;20046;-31
2023/04/25 12:22:47;;;;;;;1.00;1.00;;;7.30;99.90;;;;;;5027137;28;20084;-32
2023/04/25 12:25:33;;;;;;;1.20;1.10;;;7.20;99.90;;;;;;5020546;28;20389;-32
2023/04/25 12:28:27;;;;;;;1.48;1.17;;;7.20;99.90;;;;;;5026424;28;20296;-32
2023/04/25 12:31:06;;;;;;;1.55;1.20;;;7.20;99.90;;;;;;5018479;28;20049;-32
2023/04/25 12:33:36;;;;;;;1.00;1.00;;;7.10;99.90;;;;;;5023690;28;20029;-32
2023/04/25 12:36:08;;;;;;;2.22;1.20;;;7.10;99.90;;;;;;5024069;28;20103;-31
2023/04/25 12:38:37;;;;;;;1.00;1.00;;;7.30;99.90;;;;;;5024718;28;20531;-32
2023/04/25 12:41:02;;;;;;;1.20;1.10;;;7.20;99.90;;;;;;5021982;28;20467;-32
2023/04/25 12:43:28;;;;;;;1.90;1.80;;;7.30;99.90;;;;;;5023490;28;20100;-32
2023/04/25 12:45:55;;;;;;;1.05;1.05;;;7.40;99.90;;;;;;5026577;28;20074;-32
2023/04/25 12:48:22;;;;;;;1.05;0.95;;;7.60;99.90;;;;;;5019906;28;20029;-32
2023/04/25 12:50:49;;;;;;;0.90;0.90;;;7.60;99.90;;;;;;5020145;28;20068;-33
2023/04/25 12:53:24;;;;;;;0.98;0.98;;;7.50;99.90;;;;;;5020939;28;20025;-32
2023/04/25 12:55:50;;;;;;;1.75;1.40;;;7.50;99.90;;;;;;5020880;28;20033;-32